<?xml version="1.0" encoding="UTF-8" standalone="no" ?><gpx xmlns="http://www.topografix.com/GPX/1/1" xmlns:gpxx="http://www.garmin.com/xmlschemas/GpxExtensions/v3" xmlns:gpxtrkx="http://www.garmin.com/xmlschemas/TrackStatsExtension/v1" xmlns:wptx1="http://www.garmin.com/xmlschemas/WaypointExtension/v1" xmlns:gpxtpx="http://www.garmin.com/xmlschemas/TrackPointExtension/v1" creator="Oregon 700" version="1.1" xmlns:xsi="http://www.w3.org/2001/XMLSchema-instance" xsi:schemaLocation="http://www.topografix.com/GPX/1/1 http://www.topografix.com/GPX/1/1/gpx.xsd http://www.garmin.com/xmlschemas/GpxExtensions/v3 http://www8.garmin.com/xmlschemas/GpxExtensionsv3.xsd http://www.garmin.com/xmlschemas/TrackStatsExtension/v1 http://www8.garmin.com/xmlschemas/TrackStatsExtension.xsd http://www.garmin.com/xmlschemas/WaypointExtension/v1 http://www8.garmin.com/xmlschemas/WaypointExtensionv1.xsd http://www.garmin.com/xmlschemas/TrackPointExtension/v1 http://www.garmin.com/xmlschemas/TrackPointExtensionv1.xsd"><metadata><link href="http://www.garmin.com"><text>Garmin International</text></link><time>2023-03-01T16:45:29Z</time></metadata><trk><name>Current Track: 01 MAR 2023 10:10</name><extensions><gpxx:TrackExtension><gpxx:DisplayColor>Cyan</gpxx:DisplayColor></gpxx:TrackExtension><gpxtrkx:TrackStatsExtension><gpxtrkx:Distance>4273.000</gpxtrkx:Distance><gpxtrkx:TimerTime>7226</gpxtrkx:TimerTime><gpxtrkx:TotalElapsedTime>23689</gpxtrkx:TotalElapsedTime><gpxtrkx:MovingTime>6306</gpxtrkx:MovingTime><gpxtrkx:StoppedTime>920</gpxtrkx:StoppedTime><gpxtrkx:MovingSpeed>0.678</gpxtrkx:MovingSpeed><gpxtrkx:MaxSpeed>1.612</gpxtrkx:MaxSpeed><gpxtrkx:MaxElevation>0.000</gpxtrkx:MaxElevation><gpxtrkx:MinElevation>-137.866</gpxtrkx:MinElevation><gpxtrkx:Ascent>89.000</gpxtrkx:Ascent><gpxtrkx:Descent>82.885</gpxtrkx:Descent><gpxtrkx:AvgAscentRate>0.064</gpxtrkx:AvgAscentRate><gpxtrkx:MaxAscentRate>0.065</gpxtrkx:MaxAscentRate><gpxtrkx:AvgDescentRate>0.055</gpxtrkx:AvgDescentRate><gpxtrkx:MaxDescentRate>-0.121</gpxtrkx:MaxDescentRate><gpxtrkx:Calories>181</gpxtrkx:Calories></gpxtrkx:TrackStatsExtension></extensions><trkseg><trkpt lat="51.7218980100" lon="-2.1555499826"><ele>-136.20</ele><time>2023-03-01T10:10:41Z</time></trkpt><trkpt lat="51.7219146062" lon="-2.1554919798"><ele>-135.75</ele><time>2023-03-01T10:11:04Z</time></trkpt><trkpt lat="51.7219343036" lon="-2.1553285327"><ele>-135.75</ele><time>2023-03-01T10:11:50Z</time></trkpt><trkpt lat="51.7219290230" lon="-2.1551297978"><ele>-135.75</ele><time>2023-03-01T10:12:07Z</time></trkpt><trkpt lat="51.7218654044" lon="-2.1549556218"><ele>-135.75</ele><time>2023-03-01T10:12:24Z</time></trkpt><trkpt lat="51.7218514066" lon="-2.1547925100"><ele>-135.75</ele><time>2023-03-01T10:12:41Z</time></trkpt><trkpt lat="51.7218352295" lon="-2.1546652727"><ele>-135.75</ele><time>2023-03-01T10:12:59Z</time></trkpt><trkpt lat="51.7218073178" lon="-2.1544453315"><ele>-135.75</ele><time>2023-03-01T10:13:14Z</time></trkpt><trkpt lat="51.7217816692" lon="-2.1543354448"><ele>-135.75</ele><time>2023-03-01T10:13:26Z</time></trkpt><trkpt lat="51.7217963375" lon="-2.1542030107"><ele>-135.75</ele><time>2023-03-01T10:13:43Z</time></trkpt><trkpt lat="51.7217384186" lon="-2.1539207920"><ele>-135.75</ele><time>2023-03-01T10:14:03Z</time></trkpt><trkpt lat="51.7216790747" lon="-2.1538093127"><ele>-135.75</ele><time>2023-03-01T10:14:08Z</time></trkpt><trkpt lat="51.7215606384" lon="-2.1535576880"><ele>-137.22</ele><time>2023-03-01T10:14:31Z</time></trkpt><trkpt lat="51.7215124425" lon="-2.1534313727"><ele>-137.43</ele><time>2023-03-01T10:14:40Z</time></trkpt><trkpt lat="51.7214023042" lon="-2.1530743036"><ele>-138.00</ele><time>2023-03-01T10:15:08Z</time></trkpt><trkpt lat="51.7214116920" lon="-2.1529887244"><ele>-138.09</ele><time>2023-03-01T10:15:12Z</time></trkpt><trkpt lat="51.7214498296" lon="-2.1527217608"><ele>-137.94</ele><time>2023-03-01T10:15:31Z</time></trkpt><trkpt lat="51.7214670125" lon="-2.1525620855"><ele>-138.27</ele><time>2023-03-01T10:15:50Z</time></trkpt><trkpt lat="51.7214942537" lon="-2.1523448266"><ele>-137.70</ele><time>2023-03-01T10:16:07Z</time></trkpt><trkpt lat="51.7214904819" lon="-2.1522661205"><ele>-137.08</ele><time>2023-03-01T10:16:25Z</time></trkpt><trkpt lat="51.7215344030" lon="-2.1521031763"><ele>-136.40</ele><time>2023-03-01T10:16:45Z</time></trkpt><trkpt lat="51.7215502448" lon="-2.1518938802"><ele>-134.99</ele><time>2023-03-01T10:17:07Z</time></trkpt><trkpt lat="51.7215598840" lon="-2.1517144237"><ele>-133.63</ele><time>2023-03-01T10:17:27Z</time></trkpt><trkpt lat="51.7215825990" lon="-2.1515443549"><ele>-132.40</ele><time>2023-03-01T10:17:47Z</time></trkpt><trkpt lat="51.7216200661" lon="-2.1513276827"><ele>-131.46</ele><time>2023-03-01T10:18:05Z</time></trkpt><trkpt lat="51.7216743808" lon="-2.1511392575"><ele>-130.13</ele><time>2023-03-01T10:18:23Z</time></trkpt><trkpt lat="51.7217281926" lon="-2.1509313863"><ele>-128.25</ele><time>2023-03-01T10:18:45Z</time></trkpt><trkpt lat="51.7217317969" lon="-2.1507622395"><ele>-127.61</ele><time>2023-03-01T10:19:05Z</time></trkpt><trkpt lat="51.7217502370" lon="-2.1506919991"><ele>-127.13</ele><time>2023-03-01T10:19:22Z</time></trkpt><trkpt lat="51.7217519972" lon="-2.1506119519"><ele>-127.09</ele><time>2023-03-01T10:19:40Z</time></trkpt><trkpt lat="51.7217511591" lon="-2.1504182462"><ele>-127.19</ele><time>2023-03-01T10:19:59Z</time></trkpt><trkpt lat="51.7217516620" lon="-2.1502901707"><ele>-124.85</ele><time>2023-03-01T10:20:16Z</time></trkpt><trkpt lat="51.7217406817" lon="-2.1501842234"><ele>-122.43</ele><time>2023-03-01T10:20:37Z</time></trkpt><trkpt lat="51.7217710242" lon="-2.1500708163"><ele>-122.09</ele><time>2023-03-01T10:20:55Z</time></trkpt><trkpt lat="51.7218059767" lon="-2.1500496939"><ele>-121.54</ele><time>2023-03-01T10:21:14Z</time></trkpt><trkpt lat="51.7218218185" lon="-2.1500619315"><ele>-121.46</ele><time>2023-03-01T10:21:36Z</time></trkpt><trkpt lat="51.7218429409" lon="-2.1501205210"><ele>-119.61</ele><time>2023-03-01T10:21:59Z</time></trkpt><trkpt lat="51.7218676675" lon="-2.1501644421"><ele>-117.65</ele><time>2023-03-01T10:22:18Z</time></trkpt><trkpt lat="51.7219294421" lon="-2.1502092015"><ele>-115.89</ele><time>2023-03-01T10:22:42Z</time></trkpt><trkpt lat="51.7219985928" lon="-2.1500180103"><ele>-113.72</ele><time>2023-03-01T10:23:05Z</time></trkpt><trkpt lat="51.7219992634" lon="-2.1499068663"><ele>-111.69</ele><time>2023-03-01T10:23:28Z</time></trkpt><trkpt lat="51.7220084835" lon="-2.1498682257"><ele>-111.58</ele><time>2023-03-01T10:23:58Z</time></trkpt><trkpt lat="51.7219890375" lon="-2.1497603506"><ele>-111.26</ele><time>2023-03-01T10:24:23Z</time></trkpt><trkpt lat="51.7220676597" lon="-2.1496864222"><ele>-109.35</ele><time>2023-03-01T10:24:39Z</time></trkpt><trkpt lat="51.7220459506" lon="-2.1496098116"><ele>-108.00</ele><time>2023-03-01T10:25:00Z</time></trkpt><trkpt lat="51.7220944818" lon="-2.1494068857"><ele>-104.84</ele><time>2023-03-01T10:25:21Z</time></trkpt><trkpt lat="51.7221239861" lon="-2.1493646409"><ele>-103.59</ele><time>2023-03-01T10:25:42Z</time></trkpt><trkpt lat="51.7221562564" lon="-2.1493197978"><ele>-103.56</ele><time>2023-03-01T10:26:08Z</time></trkpt><trkpt lat="51.7221546639" lon="-2.1492393315"><ele>-103.16</ele><time>2023-03-01T10:26:28Z</time></trkpt><trkpt lat="51.7221459467" lon="-2.1491692588"><ele>-102.69</ele><time>2023-03-01T10:26:49Z</time></trkpt><trkpt lat="51.7222055420" lon="-2.1491172072"><ele>-102.19</ele><time>2023-03-01T10:27:00Z</time></trkpt><trkpt lat="51.7221877724" lon="-2.1489250101"><ele>-101.90</ele><time>2023-03-01T10:27:17Z</time></trkpt><trkpt lat="51.7221863475" lon="-2.1487282868"><ele>-101.12</ele><time>2023-03-01T10:27:37Z</time></trkpt><trkpt lat="51.7221798096" lon="-2.1485505905"><ele>-101.29</ele><time>2023-03-01T10:27:56Z</time></trkpt><trkpt lat="51.7221889459" lon="-2.1484494209"><ele>-100.83</ele><time>2023-03-01T10:28:13Z</time></trkpt><trkpt lat="51.7222047038" lon="-2.1483267937"><ele>-100.73</ele><time>2023-03-01T10:28:32Z</time></trkpt><trkpt lat="51.7222094815" lon="-2.1482249536"><ele>-101.41</ele><time>2023-03-01T10:28:52Z</time></trkpt><trkpt lat="51.7222152650" lon="-2.1481807809"><ele>-101.58</ele><time>2023-03-01T10:28:57Z</time></trkpt><trkpt lat="51.7221763730" lon="-2.1480564773"><ele>-101.58</ele><time>2023-03-01T10:29:23Z</time></trkpt><trkpt lat="51.7221898679" lon="-2.1479224507"><ele>-101.58</ele><time>2023-03-01T10:29:49Z</time></trkpt><trkpt lat="51.7222092301" lon="-2.1477800421"><ele>-101.58</ele><time>2023-03-01T10:30:05Z</time></trkpt><trkpt lat="51.7221933044" lon="-2.1475995798"><ele>-101.58</ele><time>2023-03-01T10:30:22Z</time></trkpt><trkpt lat="51.7222242337" lon="-2.1474772040"><ele>-101.58</ele><time>2023-03-01T10:30:39Z</time></trkpt><trkpt lat="51.7222312745" lon="-2.1474523097"><ele>-101.58</ele><time>2023-03-01T10:31:00Z</time></trkpt><trkpt lat="51.7222136725" lon="-2.1473922115"><ele>-101.58</ele><time>2023-03-01T10:31:08Z</time></trkpt><trkpt lat="51.7222264130" lon="-2.1472865157"><ele>-101.58</ele><time>2023-03-01T10:31:30Z</time></trkpt><trkpt lat="51.7222705018" lon="-2.1471596137"><ele>-101.58</ele><time>2023-03-01T10:31:50Z</time></trkpt><trkpt lat="51.7222993355" lon="-2.1469891258"><ele>-101.19</ele><time>2023-03-01T10:32:08Z</time></trkpt><trkpt lat="51.7222881038" lon="-2.1467986051"><ele>-100.08</ele><time>2023-03-01T10:32:27Z</time></trkpt><trkpt lat="51.7223214637" lon="-2.1466653328"><ele>-98.56</ele><time>2023-03-01T10:32:45Z</time></trkpt><trkpt lat="51.7223125789" lon="-2.1465764008"><ele>-98.17</ele><time>2023-03-01T10:33:04Z</time></trkpt><trkpt lat="51.7223031912" lon="-2.1465639956"><ele>-97.82</ele><time>2023-03-01T10:33:27Z</time></trkpt><trkpt lat="51.7222946417" lon="-2.1464719623"><ele>-98.56</ele><time>2023-03-01T10:33:47Z</time></trkpt><trkpt lat="51.7223714199" lon="-2.1462111175"><ele>-98.14</ele><time>2023-03-01T10:34:03Z</time></trkpt><trkpt lat="51.7223020177" lon="-2.1459577326"><ele>-99.30</ele><time>2023-03-01T10:34:23Z</time></trkpt><trkpt lat="51.7222565040" lon="-2.1456957981"><ele>-99.69</ele><time>2023-03-01T10:34:43Z</time></trkpt><trkpt lat="51.7222730163" lon="-2.1456076205"><ele>-99.78</ele><time>2023-03-01T10:34:56Z</time></trkpt><trkpt lat="51.7222642992" lon="-2.1455329377"><ele>-99.89</ele><time>2023-03-01T10:35:17Z</time></trkpt><trkpt lat="51.7222824879" lon="-2.1454023477"><ele>-99.76</ele><time>2023-03-01T10:35:38Z</time></trkpt><trkpt lat="51.7222635448" lon="-2.1452383976"><ele>-99.53</ele><time>2023-03-01T10:35:54Z</time></trkpt><trkpt lat="51.7222788837" lon="-2.1451249067"><ele>-99.31</ele><time>2023-03-01T10:36:09Z</time></trkpt><trkpt lat="51.7222562525" lon="-2.1450262517"><ele>-99.31</ele><time>2023-03-01T10:36:33Z</time></trkpt><trkpt lat="51.7222509719" lon="-2.1449448634"><ele>-99.31</ele><time>2023-03-01T10:36:53Z</time></trkpt><trkpt lat="51.7222347949" lon="-2.1448706836"><ele>-99.31</ele><time>2023-03-01T10:37:06Z</time></trkpt><trkpt lat="51.7221964896" lon="-2.1446592920"><ele>-99.31</ele><time>2023-03-01T10:37:27Z</time></trkpt><trkpt lat="51.7221965734" lon="-2.1445407718"><ele>-99.31</ele><time>2023-03-01T10:37:48Z</time></trkpt><trkpt lat="51.7221886106" lon="-2.1443385165"><ele>-99.31</ele><time>2023-03-01T10:38:08Z</time></trkpt><trkpt lat="51.7221853416" lon="-2.1441849601"><ele>-99.31</ele><time>2023-03-01T10:38:30Z</time></trkpt><trkpt lat="51.7222071346" lon="-2.1439910028"><ele>-99.31</ele><time>2023-03-01T10:38:50Z</time></trkpt><trkpt lat="51.7222519778" lon="-2.1439256240"><ele>-99.31</ele><time>2023-03-01T10:39:09Z</time></trkpt><trkpt lat="51.7223126628" lon="-2.1439273842"><ele>-99.31</ele><time>2023-03-01T10:39:31Z</time></trkpt><trkpt lat="51.7223647982" lon="-2.1439936850"><ele>-99.31</ele><time>2023-03-01T10:39:46Z</time></trkpt><trkpt lat="51.7224312667" lon="-2.1441112831"><ele>-99.31</ele><time>2023-03-01T10:40:04Z</time></trkpt><trkpt lat="51.7224400677" lon="-2.1441506781"><ele>-95.63</ele><time>2023-03-01T10:40:08Z</time></trkpt><trkpt lat="51.7224411573" lon="-2.1441596467"><ele>-95.56</ele><time>2023-03-01T10:40:09Z</time></trkpt><trkpt lat="51.7224702425" lon="-2.1443525143"><ele>-93.82</ele><time>2023-03-01T10:40:27Z</time></trkpt><trkpt lat="51.7225058656" lon="-2.1444693580"><ele>-91.95</ele><time>2023-03-01T10:40:46Z</time></trkpt><trkpt lat="51.7225097213" lon="-2.1445189789"><ele>-90.99</ele><time>2023-03-01T10:41:07Z</time></trkpt><trkpt lat="51.7225207016" lon="-2.1445540152"><ele>-90.94</ele><time>2023-03-01T10:41:12Z</time></trkpt><trkpt lat="51.7225585878" lon="-2.1447053924"><ele>-89.85</ele><time>2023-03-01T10:41:33Z</time></trkpt><trkpt lat="51.7225818057" lon="-2.1448602900"><ele>-87.13</ele><time>2023-03-01T10:41:57Z</time></trkpt><trkpt lat="51.7225585040" lon="-2.1449707635"><ele>-86.99</ele><time>2023-03-01T10:42:16Z</time></trkpt><trkpt lat="51.7225755192" lon="-2.1451301873"><ele>-84.89</ele><time>2023-03-01T10:42:35Z</time></trkpt><trkpt lat="51.7225932889" lon="-2.1452024393"><ele>-83.94</ele><time>2023-03-01T10:42:56Z</time></trkpt><trkpt lat="51.7226035148" lon="-2.1452235617"><ele>-84.32</ele><time>2023-03-01T10:43:18Z</time></trkpt><trkpt lat="51.7226452567" lon="-2.1453746874"><ele>-82.52</ele><time>2023-03-01T10:43:38Z</time></trkpt><trkpt lat="51.7226758506" lon="-2.1455004159"><ele>-81.15</ele><time>2023-03-01T10:43:56Z</time></trkpt><trkpt lat="51.7226692289" lon="-2.1455915272"><ele>-80.34</ele><time>2023-03-01T10:44:14Z</time></trkpt><trkpt lat="51.7227020022" lon="-2.1457254700"><ele>-78.42</ele><time>2023-03-01T10:44:37Z</time></trkpt><trkpt lat="51.7227303330" lon="-2.1457714867"><ele>-77.46</ele><time>2023-03-01T10:44:59Z</time></trkpt><trkpt lat="51.7227288242" lon="-2.1457769349"><ele>-77.37</ele><time>2023-03-01T10:45:23Z</time></trkpt><trkpt lat="51.7227496114" lon="-2.1457789466"><ele>-77.32</ele><time>2023-03-01T10:45:44Z</time></trkpt><trkpt lat="51.7227440793" lon="-2.1458121389"><ele>-77.40</ele><time>2023-03-01T10:46:06Z</time></trkpt><trkpt lat="51.7227021698" lon="-2.1459072735"><ele>-78.29</ele><time>2023-03-01T10:46:28Z</time></trkpt><trkpt lat="51.7226905189" lon="-2.1459972952"><ele>-78.25</ele><time>2023-03-01T10:46:53Z</time></trkpt><trkpt lat="51.7226396408" lon="-2.1461676154"><ele>-80.12</ele><time>2023-03-01T10:47:14Z</time></trkpt><trkpt lat="51.7226062808" lon="-2.1463912446"><ele>-81.59</ele><time>2023-03-01T10:47:35Z</time></trkpt><trkpt lat="51.7226089630" lon="-2.1465553623"><ele>-83.34</ele><time>2023-03-01T10:47:52Z</time></trkpt><trkpt lat="51.7225517984" lon="-2.1467132773"><ele>-85.64</ele><time>2023-03-01T10:48:15Z</time></trkpt><trkpt lat="51.7225376330" lon="-2.1467307117"><ele>-86.24</ele><time>2023-03-01T10:48:19Z</time></trkpt><trkpt lat="51.7224759422" lon="-2.1468857769"><ele>-86.53</ele><time>2023-03-01T10:48:41Z</time></trkpt><trkpt lat="51.7224909458" lon="-2.1469555143"><ele>-87.48</ele><time>2023-03-01T10:49:06Z</time></trkpt><trkpt lat="51.7224959750" lon="-2.1470393334"><ele>-87.96</ele><time>2023-03-01T10:49:27Z</time></trkpt><trkpt lat="51.7224450968" lon="-2.1472577658"><ele>-89.04</ele><time>2023-03-01T10:49:48Z</time></trkpt><trkpt lat="51.7224853300" lon="-2.1472042054"><ele>-88.54</ele><time>2023-03-01T10:50:07Z</time></trkpt><trkpt lat="51.7225408182" lon="-2.1471939795"><ele>-88.90</ele><time>2023-03-01T10:50:31Z</time></trkpt><trkpt lat="51.7225184385" lon="-2.1472736076"><ele>-89.08</ele><time>2023-03-01T10:50:53Z</time></trkpt><trkpt lat="51.7224004213" lon="-2.1474459395"><ele>-90.40</ele><time>2023-03-01T10:51:10Z</time></trkpt><trkpt lat="51.7223829869" lon="-2.1475230530"><ele>-92.67</ele><time>2023-03-01T10:51:31Z</time></trkpt><trkpt lat="51.7223510519" lon="-2.1476211213"><ele>-93.73</ele><time>2023-03-01T10:51:53Z</time></trkpt><trkpt lat="51.7223202903" lon="-2.1477114782"><ele>-95.14</ele><time>2023-03-01T10:52:05Z</time></trkpt><trkpt lat="51.7222913727" lon="-2.1477990691"><ele>-95.96</ele><time>2023-03-01T10:52:15Z</time></trkpt><trkpt lat="51.7222700827" lon="-2.1479845606"><ele>-95.79</ele><time>2023-03-01T10:52:32Z</time></trkpt><trkpt lat="51.7222544923" lon="-2.1481387876"><ele>-97.51</ele><time>2023-03-01T10:52:50Z</time></trkpt><trkpt lat="51.7222352978" lon="-2.1482494287"><ele>-97.56</ele><time>2023-03-01T10:53:11Z</time></trkpt><trkpt lat="51.7222099844" lon="-2.1482612472"><ele>-99.07</ele><time>2023-03-01T10:53:32Z</time></trkpt><trkpt lat="51.7221720982" lon="-2.1483582258"><ele>-99.47</ele><time>2023-03-01T10:53:51Z</time></trkpt><trkpt lat="51.7221607827" lon="-2.1485859621"><ele>-97.90</ele><time>2023-03-01T10:54:08Z</time></trkpt><trkpt lat="51.7221229803" lon="-2.1489512455"><ele>-99.45</ele><time>2023-03-01T10:54:31Z</time></trkpt><trkpt lat="51.7221208010" lon="-2.1490468830"><ele>-101.21</ele><time>2023-03-01T10:54:50Z</time></trkpt><trkpt lat="51.7221609503" lon="-2.1491349768"><ele>-100.40</ele><time>2023-03-01T10:55:13Z</time></trkpt><trkpt lat="51.7221754510" lon="-2.1493425127"><ele>-101.72</ele><time>2023-03-01T10:55:35Z</time></trkpt><trkpt lat="51.7221541610" lon="-2.1494456939"><ele>-99.18</ele><time>2023-03-01T10:55:40Z</time></trkpt><trkpt lat="51.7221030314" lon="-2.1497176029"><ele>-100.57</ele><time>2023-03-01T10:56:00Z</time></trkpt><trkpt lat="51.7220727727" lon="-2.1501404699"><ele>-100.76</ele><time>2023-03-01T10:56:21Z</time></trkpt><trkpt lat="51.7220534105" lon="-2.1502550505"><ele>-100.66</ele><time>2023-03-01T10:56:39Z</time></trkpt><trkpt lat="51.7220655642" lon="-2.1503527835"><ele>-100.44</ele><time>2023-03-01T10:56:59Z</time></trkpt><trkpt lat="51.7220374011" lon="-2.1505587269"><ele>-100.41</ele><time>2023-03-01T10:57:17Z</time></trkpt><trkpt lat="51.7220096570" lon="-2.1508701984"><ele>-100.03</ele><time>2023-03-01T10:57:39Z</time></trkpt><trkpt lat="51.7220081482" lon="-2.1510159597"><ele>-99.96</ele><time>2023-03-01T10:57:56Z</time></trkpt><trkpt lat="51.7220021132" lon="-2.1510463860"><ele>-100.31</ele><time>2023-03-01T10:58:19Z</time></trkpt><trkpt lat="51.7220136803" lon="-2.1510469727"><ele>-99.77</ele><time>2023-03-01T10:58:41Z</time></trkpt><trkpt lat="51.7220555898" lon="-2.1509843599"><ele>-99.77</ele><time>2023-03-01T10:59:01Z</time></trkpt><trkpt lat="51.7220602836" lon="-2.1508929133"><ele>-99.77</ele><time>2023-03-01T10:59:20Z</time></trkpt><trkpt lat="51.7220701743" lon="-2.1508000419"><ele>-103.92</ele><time>2023-03-01T10:59:32Z</time></trkpt><trkpt lat="51.7220726889" lon="-2.1507955156"><ele>-103.98</ele><time>2023-03-01T10:59:33Z</time></trkpt><trkpt lat="51.7220427655" lon="-2.1506256983"><ele>-105.75</ele><time>2023-03-01T10:59:55Z</time></trkpt><trkpt lat="51.7220813222" lon="-2.1505217627"><ele>-107.17</ele><time>2023-03-01T11:00:18Z</time></trkpt><trkpt lat="51.7220915481" lon="-2.1504615806"><ele>-107.87</ele><time>2023-03-01T11:00:37Z</time></trkpt><trkpt lat="51.7220085673" lon="-2.1504019853"><ele>-109.42</ele><time>2023-03-01T11:01:01Z</time></trkpt><trkpt lat="51.7219786439" lon="-2.1503310744"><ele>-110.76</ele><time>2023-03-01T11:01:22Z</time></trkpt><trkpt lat="51.7219880316" lon="-2.1502484288"><ele>-112.54</ele><time>2023-03-01T11:01:45Z</time></trkpt><trkpt lat="51.7219646461" lon="-2.1502008196"><ele>-113.87</ele><time>2023-03-01T11:02:06Z</time></trkpt><trkpt lat="51.7219006084" lon="-2.1501664538"><ele>-114.64</ele><time>2023-03-01T11:02:30Z</time></trkpt><trkpt lat="51.7218033783" lon="-2.1500601713"><ele>-117.03</ele><time>2023-03-01T11:02:53Z</time></trkpt><trkpt lat="51.7217868660" lon="-2.1500145737"><ele>-118.82</ele><time>2023-03-01T11:03:14Z</time></trkpt><trkpt lat="51.7217757180" lon="-2.1500094607"><ele>-118.82</ele><time>2023-03-01T11:03:34Z</time></trkpt><trkpt lat="51.7217827588" lon="-2.1499025915"><ele>-119.33</ele><time>2023-03-01T11:03:54Z</time></trkpt><trkpt lat="51.7217962537" lon="-2.1497626137"><ele>-120.30</ele><time>2023-03-01T11:04:12Z</time></trkpt><trkpt lat="51.7217835132" lon="-2.1496643778"><ele>-121.07</ele><time>2023-03-01T11:04:32Z</time></trkpt><trkpt lat="51.7217602953" lon="-2.1495868452"><ele>-122.20</ele><time>2023-03-01T11:04:51Z</time></trkpt><trkpt lat="51.7217746284" lon="-2.1494617872"><ele>-122.96</ele><time>2023-03-01T11:05:16Z</time></trkpt><trkpt lat="51.7217749637" lon="-2.1494487114"><ele>-124.66</ele><time>2023-03-01T11:05:20Z</time></trkpt><trkpt lat="51.7217730358" lon="-2.1493819077"><ele>-124.68</ele><time>2023-03-01T11:05:37Z</time></trkpt><trkpt lat="51.7217683420" lon="-2.1493108291"><ele>-126.79</ele><time>2023-03-01T11:06:00Z</time></trkpt><trkpt lat="51.7217520811" lon="-2.1492855158"><ele>-127.89</ele><time>2023-03-01T11:06:20Z</time></trkpt><trkpt lat="51.7217411846" lon="-2.1492369007"><ele>-129.07</ele><time>2023-03-01T11:06:41Z</time></trkpt><trkpt lat="51.7217045557" lon="-2.1492359787"><ele>-130.28</ele><time>2023-03-01T11:07:03Z</time></trkpt><trkpt lat="51.7216849420" lon="-2.1492509823"><ele>-130.97</ele><time>2023-03-01T11:07:22Z</time></trkpt><trkpt lat="51.7216674238" lon="-2.1491106693"><ele>-131.18</ele><time>2023-03-01T11:07:42Z</time></trkpt><trkpt lat="51.7216918990" lon="-2.1491394192"><ele>-131.10</ele><time>2023-03-01T11:08:07Z</time></trkpt><trkpt lat="51.7216794938" lon="-2.1491495613"><ele>-130.84</ele><time>2023-03-01T11:08:38Z</time></trkpt><trkpt lat="51.7216737103" lon="-2.1491110884"><ele>-130.91</ele><time>2023-03-01T11:08:57Z</time></trkpt><trkpt lat="51.7216505762" lon="-2.1490730345"><ele>-130.91</ele><time>2023-03-01T11:09:26Z</time></trkpt><trkpt lat="51.7216513306" lon="-2.1488739643"><ele>-131.05</ele><time>2023-03-01T11:09:41Z</time></trkpt><trkpt lat="51.7216615565" lon="-2.1487996168"><ele>-132.29</ele><time>2023-03-01T11:10:02Z</time></trkpt><trkpt lat="51.7216588743" lon="-2.1487601381"><ele>-132.91</ele><time>2023-03-01T11:10:04Z</time></trkpt><trkpt lat="51.7217054777" lon="-2.1485671867"><ele>-130.62</ele><time>2023-03-01T11:10:13Z</time></trkpt><trkpt lat="51.7217664979" lon="-2.1483572200"><ele>-131.78</ele><time>2023-03-01T11:10:25Z</time></trkpt><trkpt lat="51.7217789870" lon="-2.1482344251"><ele>-132.09</ele><time>2023-03-01T11:10:30Z</time></trkpt><trkpt lat="51.7217594571" lon="-2.1479173377"><ele>-133.07</ele><time>2023-03-01T11:10:46Z</time></trkpt><trkpt lat="51.7217364069" lon="-2.1478652861"><ele>-133.22</ele><time>2023-03-01T11:10:50Z</time></trkpt><trkpt lat="51.7217289470" lon="-2.1477127355"><ele>-133.27</ele><time>2023-03-01T11:11:12Z</time></trkpt><trkpt lat="51.7217201460" lon="-2.1475490369"><ele>-133.39</ele><time>2023-03-01T11:11:32Z</time></trkpt><trkpt lat="51.7217451241" lon="-2.1473640483"><ele>-133.71</ele><time>2023-03-01T11:11:48Z</time></trkpt><trkpt lat="51.7217839323" lon="-2.1472049598"><ele>-133.74</ele><time>2023-03-01T11:12:06Z</time></trkpt><trkpt lat="51.7217923142" lon="-2.1470674127"><ele>-133.74</ele><time>2023-03-01T11:12:21Z</time></trkpt><trkpt lat="51.7217768077" lon="-2.1468980983"><ele>-133.74</ele><time>2023-03-01T11:12:45Z</time></trkpt><trkpt lat="51.7217916436" lon="-2.1467042249"><ele>-133.74</ele><time>2023-03-01T11:13:01Z</time></trkpt><trkpt lat="51.7218343914" lon="-2.1464898996"><ele>-133.74</ele><time>2023-03-01T11:13:20Z</time></trkpt><trkpt lat="51.7218813300" lon="-2.1463013068"><ele>-133.74</ele><time>2023-03-01T11:13:41Z</time></trkpt><trkpt lat="51.7217942420" lon="-2.1460896637"><ele>-133.74</ele><time>2023-03-01T11:14:01Z</time></trkpt><trkpt lat="51.7217709403" lon="-2.1459243726"><ele>-133.74</ele><time>2023-03-01T11:14:16Z</time></trkpt><trkpt lat="51.7218037974" lon="-2.1458256338"><ele>-133.74</ele><time>2023-03-01T11:14:35Z</time></trkpt><trkpt lat="51.7218473833" lon="-2.1458276454"><ele>-133.74</ele><time>2023-03-01T11:14:55Z</time></trkpt><trkpt lat="51.7218562681" lon="-2.1455765236"><ele>-133.74</ele><time>2023-03-01T11:15:13Z</time></trkpt><trkpt lat="51.7218311224" lon="-2.1455018409"><ele>-133.74</ele><time>2023-03-01T11:15:28Z</time></trkpt><trkpt lat="51.7217743769" lon="-2.1452817321"><ele>-133.74</ele><time>2023-03-01T11:15:46Z</time></trkpt><trkpt lat="51.7217582837" lon="-2.1450865176"><ele>-133.74</ele><time>2023-03-01T11:16:03Z</time></trkpt><trkpt lat="51.7217413522" lon="-2.1449595317"><ele>-133.74</ele><time>2023-03-01T11:16:15Z</time></trkpt><trkpt lat="51.7217058130" lon="-2.1447528340"><ele>-133.74</ele><time>2023-03-01T11:16:34Z</time></trkpt><trkpt lat="51.7216915637" lon="-2.1446678415"><ele>-133.74</ele><time>2023-03-01T11:16:49Z</time></trkpt><trkpt lat="51.7216815893" lon="-2.1445794962"><ele>-129.12</ele><time>2023-03-01T11:16:56Z</time></trkpt><trkpt lat="51.7216833495" lon="-2.1445673425"><ele>-129.44</ele><time>2023-03-01T11:16:57Z</time></trkpt><trkpt lat="51.7217153683" lon="-2.1443847846"><ele>-129.08</ele><time>2023-03-01T11:17:16Z</time></trkpt><trkpt lat="51.7216079123" lon="-2.1441637538"><ele>-128.53</ele><time>2023-03-01T11:17:34Z</time></trkpt><trkpt lat="51.7215008754" lon="-2.1439684555"><ele>-127.83</ele><time>2023-03-01T11:17:54Z</time></trkpt><trkpt lat="51.7214169726" lon="-2.1438445710"><ele>-127.17</ele><time>2023-03-01T11:18:13Z</time></trkpt><trkpt lat="51.7213427927" lon="-2.1437452454"><ele>-126.64</ele><time>2023-03-01T11:18:32Z</time></trkpt><trkpt lat="51.7212834489" lon="-2.1436563134"><ele>-125.92</ele><time>2023-03-01T11:18:49Z</time></trkpt><trkpt lat="51.7212464008" lon="-2.1435955446"><ele>-124.68</ele><time>2023-03-01T11:19:08Z</time></trkpt><trkpt lat="51.7211384419" lon="-2.1434300020"><ele>-122.33</ele><time>2023-03-01T11:19:29Z</time></trkpt><trkpt lat="51.7211034894" lon="-2.1433424950"><ele>-120.73</ele><time>2023-03-01T11:19:49Z</time></trkpt><trkpt lat="51.7210811935" lon="-2.1431980748"><ele>-119.84</ele><time>2023-03-01T11:20:09Z</time></trkpt><trkpt lat="51.7210921738" lon="-2.1430535708"><ele>-119.15</ele><time>2023-03-01T11:20:25Z</time></trkpt><trkpt lat="51.7211316526" lon="-2.1428627986"><ele>-117.72</ele><time>2023-03-01T11:20:43Z</time></trkpt><trkpt lat="51.7211987078" lon="-2.1427255869"><ele>-115.94</ele><time>2023-03-01T11:21:01Z</time></trkpt><trkpt lat="51.7212141305" lon="-2.1426121797"><ele>-116.03</ele><time>2023-03-01T11:21:21Z</time></trkpt><trkpt lat="51.7212091014" lon="-2.1425080765"><ele>-115.96</ele><time>2023-03-01T11:21:41Z</time></trkpt><trkpt lat="51.7212367617" lon="-2.1422976069"><ele>-117.54</ele><time>2023-03-01T11:22:01Z</time></trkpt><trkpt lat="51.7212413717" lon="-2.1421646699"><ele>-119.39</ele><time>2023-03-01T11:22:21Z</time></trkpt><trkpt lat="51.7212633323" lon="-2.1420487482"><ele>-121.27</ele><time>2023-03-01T11:22:39Z</time></trkpt><trkpt lat="51.7213028949" lon="-2.1420294698"><ele>-121.94</ele><time>2023-03-01T11:23:00Z</time></trkpt><trkpt lat="51.7213444691" lon="-2.1419215109"><ele>-122.91</ele><time>2023-03-01T11:23:17Z</time></trkpt><trkpt lat="51.7213083431" lon="-2.1418388654"><ele>-124.04</ele><time>2023-03-01T11:23:36Z</time></trkpt><trkpt lat="51.7212726362" lon="-2.1416977141"><ele>-124.70</ele><time>2023-03-01T11:23:56Z</time></trkpt><trkpt lat="51.7212447245" lon="-2.1415742487"><ele>-126.30</ele><time>2023-03-01T11:24:17Z</time></trkpt><trkpt lat="51.7213044874" lon="-2.1413885895"><ele>-126.97</ele><time>2023-03-01T11:24:34Z</time></trkpt><trkpt lat="51.7213811819" lon="-2.1412445046"><ele>-127.62</ele><time>2023-03-01T11:24:55Z</time></trkpt><trkpt lat="51.7214499973" lon="-2.1410373040"><ele>-128.49</ele><time>2023-03-01T11:25:15Z</time></trkpt><trkpt lat="51.7215269431" lon="-2.1408762876"><ele>-128.92</ele><time>2023-03-01T11:25:32Z</time></trkpt><trkpt lat="51.7215720378" lon="-2.1406861022"><ele>-129.26</ele><time>2023-03-01T11:25:48Z</time></trkpt><trkpt lat="51.7215228360" lon="-2.1404513251"><ele>-129.24</ele><time>2023-03-01T11:26:09Z</time></trkpt><trkpt lat="51.7214950919" lon="-2.1402199846"><ele>-129.62</ele><time>2023-03-01T11:26:26Z</time></trkpt><trkpt lat="51.7215042282" lon="-2.1401661728"><ele>-129.34</ele><time>2023-03-01T11:26:42Z</time></trkpt><trkpt lat="51.7215037253" lon="-2.1401636582"><ele>-131.48</ele><time>2023-03-01T11:26:49Z</time></trkpt><trkpt lat="51.7215036415" lon="-2.1401633229"><ele>-129.22</ele><time>2023-03-01T11:26:54Z</time></trkpt><trkpt lat="51.7214960139" lon="-2.1401843615"><ele>-129.29</ele><time>2023-03-01T11:27:16Z</time></trkpt><trkpt lat="51.7215122748" lon="-2.1401957609"><ele>-129.29</ele><time>2023-03-01T11:27:43Z</time></trkpt><trkpt lat="51.7215069942" lon="-2.1401910670"><ele>-129.29</ele><time>2023-03-01T11:28:05Z</time></trkpt><trkpt lat="51.7214846145" lon="-2.1401806735"><ele>-129.29</ele><time>2023-03-01T11:28:29Z</time></trkpt><trkpt lat="51.7215031385" lon="-2.1401717048"><ele>-129.29</ele><time>2023-03-01T11:28:53Z</time></trkpt><trkpt lat="51.7215438746" lon="-2.1402690187"><ele>-129.29</ele><time>2023-03-01T11:29:18Z</time></trkpt><trkpt lat="51.7215403542" lon="-2.1402481478"><ele>-129.29</ele><time>2023-03-01T11:29:47Z</time></trkpt><trkpt lat="51.7215229198" lon="-2.1402231697"><ele>-129.29</ele><time>2023-03-01T11:30:15Z</time></trkpt><trkpt lat="51.7215206567" lon="-2.1402095910"><ele>-129.29</ele><time>2023-03-01T11:30:41Z</time></trkpt><trkpt lat="51.7214970198" lon="-2.1402021311"><ele>-129.29</ele><time>2023-03-01T11:31:10Z</time></trkpt><trkpt lat="51.7214995343" lon="-2.1402428672"><ele>-129.29</ele><time>2023-03-01T11:31:37Z</time></trkpt><trkpt lat="51.7215047311" lon="-2.1402182244"><ele>-129.29</ele><time>2023-03-01T11:32:03Z</time></trkpt><trkpt lat="51.7215217464" lon="-2.1402085852"><ele>-129.29</ele><time>2023-03-01T11:32:28Z</time></trkpt><trkpt lat="51.7215116881" lon="-2.1402006224"><ele>-129.29</ele><time>2023-03-01T11:32:56Z</time></trkpt><trkpt lat="51.7215129454" lon="-2.1400676016"><ele>-129.29</ele><time>2023-03-01T11:33:22Z</time></trkpt><trkpt lat="51.7216421943" lon="-2.1398702916"><ele>-129.37</ele><time>2023-03-01T11:33:39Z</time></trkpt><trkpt lat="51.7216557730" lon="-2.1398397814"><ele>-129.38</ele><time>2023-03-01T11:33:41Z</time></trkpt><trkpt lat="51.7218146939" lon="-2.1396602411"><ele>-129.46</ele><time>2023-03-01T11:33:59Z</time></trkpt><trkpt lat="51.7218029592" lon="-2.1396504343"><ele>-129.20</ele><time>2023-03-01T11:34:05Z</time></trkpt><trkpt lat="51.7217608821" lon="-2.1396759152"><ele>-129.16</ele><time>2023-03-01T11:34:08Z</time></trkpt><trkpt lat="51.7217246722" lon="-2.1397131309"><ele>-128.83</ele><time>2023-03-01T11:34:19Z</time></trkpt><trkpt lat="51.7217685934" lon="-2.1396724787"><ele>-128.70</ele><time>2023-03-01T11:34:22Z</time></trkpt><trkpt lat="51.7219153605" lon="-2.1396550443"><ele>-129.27</ele><time>2023-03-01T11:34:37Z</time></trkpt><trkpt lat="51.7218597885" lon="-2.1396747418"><ele>-129.38</ele><time>2023-03-01T11:34:45Z</time></trkpt><trkpt lat="51.7217289470" lon="-2.1397402044"><ele>-129.12</ele><time>2023-03-01T11:34:59Z</time></trkpt><trkpt lat="51.7217123508" lon="-2.1397609077"><ele>-129.04</ele><time>2023-03-01T11:35:01Z</time></trkpt><trkpt lat="51.7216584552" lon="-2.1398422122"><ele>-128.87</ele><time>2023-03-01T11:35:06Z</time></trkpt><trkpt lat="51.7215513345" lon="-2.1400551964"><ele>-129.14</ele><time>2023-03-01T11:35:21Z</time></trkpt><trkpt lat="51.7214865424" lon="-2.1402100101"><ele>-128.93</ele><time>2023-03-01T11:35:40Z</time></trkpt><trkpt lat="51.7214635760" lon="-2.1402955055"><ele>-128.75</ele><time>2023-03-01T11:35:55Z</time></trkpt><trkpt lat="51.7214334849" lon="-2.1404279396"><ele>-129.44</ele><time>2023-03-01T11:36:15Z</time></trkpt><trkpt lat="51.7214284558" lon="-2.1404853556"><ele>-129.87</ele><time>2023-03-01T11:36:36Z</time></trkpt><trkpt lat="51.7214680184" lon="-2.1403473057"><ele>-129.71</ele><time>2023-03-01T11:36:54Z</time></trkpt><trkpt lat="51.7215213273" lon="-2.1402290370"><ele>-129.71</ele><time>2023-03-01T11:37:12Z</time></trkpt><trkpt lat="51.7215717863" lon="-2.1402871236"><ele>-129.71</ele><time>2023-03-01T11:37:37Z</time></trkpt><trkpt lat="51.7215682659" lon="-2.1402291209"><ele>-129.71</ele><time>2023-03-01T11:38:09Z</time></trkpt><trkpt lat="51.7215496581" lon="-2.1402110998"><ele>-129.71</ele><time>2023-03-01T11:38:46Z</time></trkpt><trkpt lat="51.7215085030" lon="-2.1402558591"><ele>-129.71</ele><time>2023-03-01T11:39:20Z</time></trkpt><trkpt lat="51.7215185612" lon="-2.1402557753"><ele>-127.88</ele><time>2023-03-01T11:39:28Z</time></trkpt><trkpt lat="51.7215121910" lon="-2.1402082499"><ele>-128.01</ele><time>2023-03-01T11:39:54Z</time></trkpt><trkpt lat="51.7215099279" lon="-2.1401901450"><ele>-128.29</ele><time>2023-03-01T11:40:18Z</time></trkpt><trkpt lat="51.7215054017" lon="-2.1401778236"><ele>-128.01</ele><time>2023-03-01T11:40:38Z</time></trkpt><trkpt lat="51.7215401027" lon="-2.1403033007"><ele>-128.01</ele><time>2023-03-01T11:40:57Z</time></trkpt><trkpt lat="51.7215012945" lon="-2.1404389199"><ele>-128.01</ele><time>2023-03-01T11:41:14Z</time></trkpt><trkpt lat="51.7214174755" lon="-2.1404857747"><ele>-128.01</ele><time>2023-03-01T11:41:34Z</time></trkpt><trkpt lat="51.7213572096" lon="-2.1405662410"><ele>-128.01</ele><time>2023-03-01T11:41:51Z</time></trkpt><trkpt lat="51.7212982848" lon="-2.1406599507"><ele>-128.01</ele><time>2023-03-01T11:42:11Z</time></trkpt><trkpt lat="51.7212708760" lon="-2.1406539995"><ele>-128.01</ele><time>2023-03-01T11:42:30Z</time></trkpt><trkpt lat="51.7212663498" lon="-2.1407069732"><ele>-128.02</ele><time>2023-03-01T11:42:54Z</time></trkpt><trkpt lat="51.7212015577" lon="-2.1408145130"><ele>-128.02</ele><time>2023-03-01T11:43:15Z</time></trkpt><trkpt lat="51.7211339157" lon="-2.1409816481"><ele>-128.02</ele><time>2023-03-01T11:43:33Z</time></trkpt><trkpt lat="51.7210511025" lon="-2.1411763597"><ele>-128.02</ele><time>2023-03-01T11:43:52Z</time></trkpt><trkpt lat="51.7209586501" lon="-2.1412808821"><ele>-128.02</ele><time>2023-03-01T11:44:10Z</time></trkpt><trkpt lat="51.7209278885" lon="-2.1413537208"><ele>-128.02</ele><time>2023-03-01T11:44:25Z</time></trkpt><trkpt lat="51.7208756693" lon="-2.1414368693"><ele>-128.02</ele><time>2023-03-01T11:44:42Z</time></trkpt><trkpt lat="51.7208257969" lon="-2.1416133083"><ele>-128.02</ele><time>2023-03-01T11:44:59Z</time></trkpt><trkpt lat="51.7208130565" lon="-2.1416974626"><ele>-128.02</ele><time>2023-03-01T11:45:16Z</time></trkpt><trkpt lat="51.7207772657" lon="-2.1418668609"><ele>-128.02</ele><time>2023-03-01T11:45:41Z</time></trkpt><trkpt lat="51.7207486834" lon="-2.1419658512"><ele>-128.02</ele><time>2023-03-01T11:45:56Z</time></trkpt><trkpt lat="51.7207319196" lon="-2.1422033105"><ele>-128.02</ele><time>2023-03-01T11:46:16Z</time></trkpt><trkpt lat="51.7206993978" lon="-2.1423787437"><ele>-128.02</ele><time>2023-03-01T11:46:38Z</time></trkpt><trkpt lat="51.7206902616" lon="-2.1424659155"><ele>-128.02</ele><time>2023-03-01T11:47:01Z</time></trkpt><trkpt lat="51.7206988111" lon="-2.1426456235"><ele>-128.02</ele><time>2023-03-01T11:47:18Z</time></trkpt><trkpt lat="51.7206803709" lon="-2.1428528242"><ele>-128.02</ele><time>2023-03-01T11:47:35Z</time></trkpt><trkpt lat="51.7206758447" lon="-2.1431572549"><ele>-128.02</ele><time>2023-03-01T11:47:56Z</time></trkpt><trkpt lat="51.7206415627" lon="-2.1432414930"><ele>-128.02</ele><time>2023-03-01T11:48:18Z</time></trkpt><trkpt lat="51.7205894273" lon="-2.1433586720"><ele>-128.02</ele><time>2023-03-01T11:48:35Z</time></trkpt><trkpt lat="51.7205860745" lon="-2.1435727458"><ele>-128.02</ele><time>2023-03-01T11:48:53Z</time></trkpt><trkpt lat="51.7206608411" lon="-2.1438543778"><ele>-128.02</ele><time>2023-03-01T11:49:14Z</time></trkpt><trkpt lat="51.7207703926" lon="-2.1441165637"><ele>-126.87</ele><time>2023-03-01T11:49:34Z</time></trkpt><trkpt lat="51.7209030781" lon="-2.1443126164"><ele>-126.85</ele><time>2023-03-01T11:49:56Z</time></trkpt><trkpt lat="51.7210506834" lon="-2.1444413625"><ele>-126.58</ele><time>2023-03-01T11:50:15Z</time></trkpt><trkpt lat="51.7211710475" lon="-2.1447435301"><ele>-126.15</ele><time>2023-03-01T11:50:39Z</time></trkpt><trkpt lat="51.7212105263" lon="-2.1449301112"><ele>-126.35</ele><time>2023-03-01T11:50:58Z</time></trkpt><trkpt lat="51.7212412879" lon="-2.1451663133"><ele>-126.41</ele><time>2023-03-01T11:51:16Z</time></trkpt><trkpt lat="51.7212625779" lon="-2.1454136632"><ele>-126.68</ele><time>2023-03-01T11:51:34Z</time></trkpt><trkpt lat="51.7212500051" lon="-2.1455807146"><ele>-126.68</ele><time>2023-03-01T11:51:54Z</time></trkpt><trkpt lat="51.7212249432" lon="-2.1458582394"><ele>-126.68</ele><time>2023-03-01T11:52:16Z</time></trkpt><trkpt lat="51.7212193273" lon="-2.1462013945"><ele>-126.68</ele><time>2023-03-01T11:52:41Z</time></trkpt><trkpt lat="51.7211874761" lon="-2.1464562882"><ele>-126.68</ele><time>2023-03-01T11:53:06Z</time></trkpt><trkpt lat="51.7211680301" lon="-2.1466170531"><ele>-126.68</ele><time>2023-03-01T11:53:31Z</time></trkpt><trkpt lat="51.7211515177" lon="-2.1468284447"><ele>-126.68</ele><time>2023-03-01T11:53:52Z</time></trkpt><trkpt lat="51.7211914156" lon="-2.1469204780"><ele>-126.68</ele><time>2023-03-01T11:54:13Z</time></trkpt><trkpt lat="51.7211793456" lon="-2.1470177919"><ele>-130.27</ele><time>2023-03-01T11:54:25Z</time></trkpt><trkpt lat="51.7211731430" lon="-2.1470269281"><ele>-129.87</ele><time>2023-03-01T11:54:26Z</time></trkpt><trkpt lat="51.7211692035" lon="-2.1470374055"><ele>-125.65</ele><time>2023-03-01T11:54:28Z</time></trkpt><trkpt lat="51.7211414594" lon="-2.1472238190"><ele>-127.74</ele><time>2023-03-01T11:54:46Z</time></trkpt><trkpt lat="51.7211402860" lon="-2.1474537347"><ele>-128.26</ele><time>2023-03-01T11:55:06Z</time></trkpt><trkpt lat="51.7210901622" lon="-2.1477217879"><ele>-128.44</ele><time>2023-03-01T11:55:27Z</time></trkpt><trkpt lat="51.7211005557" lon="-2.1478245500"><ele>-128.21</ele><time>2023-03-01T11:55:45Z</time></trkpt><trkpt lat="51.7210981250" lon="-2.1480022464"><ele>-128.09</ele><time>2023-03-01T11:56:01Z</time></trkpt><trkpt lat="51.7210977897" lon="-2.1481858101"><ele>-128.48</ele><time>2023-03-01T11:56:20Z</time></trkpt><trkpt lat="51.7211112007" lon="-2.1482273005"><ele>-128.25</ele><time>2023-03-01T11:56:46Z</time></trkpt><trkpt lat="51.7210862227" lon="-2.1483414620"><ele>-128.25</ele><time>2023-03-01T11:57:04Z</time></trkpt><trkpt lat="51.7211267911" lon="-2.1486200765"><ele>-128.25</ele><time>2023-03-01T11:57:24Z</time></trkpt><trkpt lat="51.7211854644" lon="-2.1488856990"><ele>-128.25</ele><time>2023-03-01T11:57:44Z</time></trkpt><trkpt lat="51.7212555371" lon="-2.1491539199"><ele>-128.25</ele><time>2023-03-01T11:58:03Z</time></trkpt><trkpt lat="51.7212974466" lon="-2.1492594481"><ele>-128.25</ele><time>2023-03-01T11:58:20Z</time></trkpt><trkpt lat="51.7213669326" lon="-2.1494336240"><ele>-128.26</ele><time>2023-03-01T11:58:40Z</time></trkpt><trkpt lat="51.7214437108" lon="-2.1496592648"><ele>-128.26</ele><time>2023-03-01T11:59:00Z</time></trkpt><trkpt lat="51.7214725446" lon="-2.1497777849"><ele>-128.26</ele><time>2023-03-01T11:59:20Z</time></trkpt><trkpt lat="51.7214778252" lon="-2.1499511227"><ele>-128.26</ele><time>2023-03-01T11:59:43Z</time></trkpt><trkpt lat="51.7214658391" lon="-2.1500976384"><ele>-128.26</ele><time>2023-03-01T12:00:07Z</time></trkpt><trkpt lat="51.7214874644" lon="-2.1501639392"><ele>-128.26</ele><time>2023-03-01T12:00:27Z</time></trkpt><trkpt lat="51.7214938346" lon="-2.1503076889"><ele>-128.26</ele><time>2023-03-01T12:00:51Z</time></trkpt><trkpt lat="51.7214824352" lon="-2.1503627580"><ele>-128.26</ele><time>2023-03-01T12:00:54Z</time></trkpt><trkpt lat="51.7213801760" lon="-2.1506038215"><ele>-128.26</ele><time>2023-03-01T12:01:21Z</time></trkpt><trkpt lat="51.7213502526" lon="-2.1506849583"><ele>-128.26</ele><time>2023-03-01T12:01:30Z</time></trkpt><trkpt lat="51.7213341594" lon="-2.1507451404"><ele>-128.26</ele><time>2023-03-01T12:01:38Z</time></trkpt><trkpt lat="51.7212543637" lon="-2.1509699430"><ele>-128.26</ele><time>2023-03-01T12:01:58Z</time></trkpt><trkpt lat="51.7211658508" lon="-2.1512141917"><ele>-128.26</ele><time>2023-03-01T12:02:19Z</time></trkpt><trkpt lat="51.7211473268" lon="-2.1512871142"><ele>-128.26</ele><time>2023-03-01T12:02:43Z</time></trkpt><trkpt lat="51.7211167328" lon="-2.1513456199"><ele>-128.26</ele><time>2023-03-01T12:03:03Z</time></trkpt><trkpt lat="51.7210598197" lon="-2.1514125075"><ele>-128.26</ele><time>2023-03-01T12:03:23Z</time></trkpt><trkpt lat="51.7210614961" lon="-2.1516463626"><ele>-128.26</ele><time>2023-03-01T12:03:43Z</time></trkpt><trkpt lat="51.7209943570" lon="-2.1518377215"><ele>-128.18</ele><time>2023-03-01T12:03:57Z</time></trkpt><trkpt lat="51.7209355161" lon="-2.1519315988"><ele>-128.94</ele><time>2023-03-01T12:04:14Z</time></trkpt><trkpt lat="51.7208949476" lon="-2.1519918647"><ele>-129.64</ele><time>2023-03-01T12:04:30Z</time></trkpt><trkpt lat="51.7208900023" lon="-2.1520159207"><ele>-128.30</ele><time>2023-03-01T12:04:38Z</time></trkpt><trkpt lat="51.7208877392" lon="-2.1520023420"><ele>-132.22</ele><time>2023-03-01T12:04:44Z</time></trkpt><trkpt lat="51.7208900023" lon="-2.1519977320"><ele>-134.16</ele><time>2023-03-01T12:04:47Z</time></trkpt><trkpt lat="51.7208804470" lon="-2.1520102210"><ele>-129.18</ele><time>2023-03-01T12:04:51Z</time></trkpt><trkpt lat="51.7208625097" lon="-2.1520357858"><ele>-126.07</ele><time>2023-03-01T12:04:54Z</time></trkpt><trkpt lat="51.7208289821" lon="-2.1521255560"><ele>-129.21</ele><time>2023-03-01T12:05:05Z</time></trkpt><trkpt lat="51.7208755855" lon="-2.1522800345"><ele>-130.20</ele><time>2023-03-01T12:05:24Z</time></trkpt><trkpt lat="51.7209702171" lon="-2.1524951141"><ele>-130.15</ele><time>2023-03-01T12:05:43Z</time></trkpt><trkpt lat="51.7210593168" lon="-2.1527051646"><ele>-130.31</ele><time>2023-03-01T12:06:00Z</time></trkpt><trkpt lat="51.7211514339" lon="-2.1528981160"><ele>-130.32</ele><time>2023-03-01T12:06:17Z</time></trkpt><trkpt lat="51.7212061677" lon="-2.1531402692"><ele>-130.12</ele><time>2023-03-01T12:06:35Z</time></trkpt><trkpt lat="51.7212723009" lon="-2.1533160377"><ele>-130.03</ele><time>2023-03-01T12:06:54Z</time></trkpt><trkpt lat="51.7213531025" lon="-2.1535402536"><ele>-130.01</ele><time>2023-03-01T12:07:14Z</time></trkpt><trkpt lat="51.7213596404" lon="-2.1535674948"><ele>-130.01</ele><time>2023-03-01T12:07:15Z</time></trkpt><trkpt lat="51.7214572057" lon="-2.1538264956"><ele>-130.01</ele><time>2023-03-01T12:07:37Z</time></trkpt><trkpt lat="51.7215218302" lon="-2.1540478617"><ele>-130.01</ele><time>2023-03-01T12:07:56Z</time></trkpt><trkpt lat="51.7216053139" lon="-2.1543239616"><ele>-130.01</ele><time>2023-03-01T12:08:18Z</time></trkpt><trkpt lat="51.7216602992" lon="-2.1545220260"><ele>-129.49</ele><time>2023-03-01T12:08:40Z</time></trkpt><trkpt lat="51.7218338046" lon="-2.1548467409"><ele>-128.45</ele><time>2023-03-01T12:09:02Z</time></trkpt><trkpt lat="51.7218679190" lon="-2.1549067553"><ele>-128.07</ele><time>2023-03-01T12:09:27Z</time></trkpt><trkpt lat="51.7219545040" lon="-2.1550207492"><ele>-127.71</ele><time>2023-03-01T12:09:49Z</time></trkpt><trkpt lat="51.7219064757" lon="-2.1553377528"><ele>-127.91</ele><time>2023-03-01T12:10:11Z</time></trkpt><trkpt lat="51.7219027039" lon="-2.1555108391"><ele>-128.36</ele><time>2023-03-01T12:10:28Z</time></trkpt><trkpt lat="51.7219007760" lon="-2.1555148624"><ele>-130.50</ele><time>2023-03-01T12:10:32Z</time></trkpt><trkpt lat="51.7219120916" lon="-2.1555211488"><ele>-126.99</ele><time>2023-03-01T12:10:42Z</time></trkpt><trkpt lat="51.7218919750" lon="-2.1554927342"><ele>-130.78</ele><time>2023-03-01T12:10:49Z</time></trkpt><trkpt lat="51.7218804918" lon="-2.1554900520"><ele>-128.23</ele><time>2023-03-01T12:10:53Z</time></trkpt><trkpt lat="51.7218457907" lon="-2.1554515790"><ele>-128.23</ele><time>2023-03-01T12:11:08Z</time></trkpt></trkseg></trk></gpx>